sensor_id;sensor_type;location;lat;lon;timestamp;P1;durP1;ratioP1;P2;durP2;ratioP2
18336;SDS011;9294;51.106;7.028;2024-01-06T00:01:10;2.03;;;1.92;;
18336;SDS011;9294;51.106;7.028;2024-01-06T00:03:38;2.00;;;1.90;;
18336;SDS011;9294;51.106;7.028;2024-01-06T00:06:06;2.00;;;1.90;;
18336;SDS011;9294;51.106;7.028;2024-01-06T00:08:33;1.63;;;1.63;;
18336;SDS011;9294;51.106;7.028;2024-01-06T00:11:00;2.17;;;1.90;;
18336;SDS011;9294;51.106;7.028;2024-01-06T00:13:28;2.00;;;1.90;;
18336;SDS011;9294;51.106;7.028;2024-01-06T00:15:55;1.85;;;1.75;;
18336;SDS011;9294;51.106;7.028;2024-01-06T00:18:23;2.10;;;2.00;;
18336;SDS011;9294;51.106;7.028;2024-01-06T00:20:50;1.90;;;1.80;;
18336;SDS011;9294;51.106;7.028;2024-01-06T00:23:19;1.88;;;1.77;;
18336;SDS011;9294;51.106;7.028;2024-01-06T00:25:46;1.33;;;1.33;;
18336;SDS011;9294;51.106;7.028;2024-01-06T00:28:13;1.60;;;1.60;;
18336;SDS011;9294;51.106;7.028;2024-01-06T00:30:40;1.50;;;1.50;;
18336;SDS011;9294;51.106;7.028;2024-01-06T00:33:07;1.80;;;1.80;;
18336;SDS011;9294;51.106;7.028;2024-01-06T00:35:34;1.65;;;1.65;;
18336;SDS011;9294;51.106;7.028;2024-01-06T00:38:01;1.83;;;1.80;;
18336;SDS011;9294;51.106;7.028;2024-01-06T00:40:29;1.80;;;1.70;;
18336;SDS011;9294;51.106;7.028;2024-01-06T00:42:58;1.30;;;1.30;;
18336;SDS011;9294;51.106;7.028;2024-01-06T00:45:25;1.88;;;1.77;;
18336;SDS011;9294;51.106;7.028;2024-01-06T00:47:52;1.60;;;1.60;;
18336;SDS011;9294;51.106;7.028;2024-01-06T00:50:19;1.48;;;1.48;;
18336;SDS011;9294;51.106;7.028;2024-01-06T00:52:46;1.35;;;1.35;;
18336;SDS011;9294;51.106;7.028;2024-01-06T00:55:13;1.42;;;1.42;;
18336;SDS011;9294;51.106;7.028;2024-01-06T00:57:41;1.40;;;1.40;;
18336;SDS011;9294;51.106;7.028;2024-01-06T01:00:09;1.70;;;1.65;;
18336;SDS011;9294;51.106;7.028;2024-01-06T01:02:36;1.60;;;1.60;;
18336;SDS011;9294;51.106;7.028;2024-01-06T01:05:03;1.30;;;1.30;;
18336;SDS011;9294;51.106;7.028;2024-01-06T01:07:32;1.55;;;1.55;;
18336;SDS011;9294;51.106;7.028;2024-01-06T01:09:59;1.30;;;1.30;;
18336;SDS011;9294;51.106;7.028;2024-01-06T01:12:26;1.42;;;1.42;;
18336;SDS011;9294;51.106;7.028;2024-01-06T01:14:54;1.58;;;1.58;;
18336;SDS011;9294;51.106;7.028;2024-01-06T01:17:22;1.27;;;1.27;;
18336;SDS011;9294;51.106;7.028;2024-01-06T01:19:49;1.80;;;1.70;;
18336;SDS011;9294;51.106;7.028;2024-01-06T01:22:16;1.23;;;1.23;;
18336;SDS011;9294;51.106;7.028;2024-01-06T01:24:43;1.40;;;1.40;;
18336;SDS011;9294;51.106;7.028;2024-01-06T01:27:12;1.40;;;1.40;;
18336;SDS011;9294;51.106;7.028;2024-01-06T01:29:39;1.50;;;1.50;;
18336;SDS011;9294;51.106;7.028;2024-01-06T01:32:07;1.23;;;1.23;;
18336;SDS011;9294;51.106;7.028;2024-01-06T01:34:34;1.35;;;1.35;;
18336;SDS011;9294;51.106;7.028;2024-01-06T01:37:01;1.25;;;1.25;;
18336;SDS011;9294;51.106;7.028;2024-01-06T01:39:28;1.40;;;1.30;;
18336;SDS011;9294;51.106;7.028;2024-01-06T01:41:55;1.40;;;1.40;;
18336;SDS011;9294;51.106;7.028;2024-01-06T01:44:22;1.60;;;1.60;;
18336;SDS011;9294;51.106;7.028;2024-01-06T01:46:49;1.20;;;1.20;;
18336;SDS011;9294;51.106;7.028;2024-01-06T01:49:18;1.40;;;1.40;;
18336;SDS011;9294;51.106;7.028;2024-01-06T01:51:45;1.25;;;1.25;;
18336;SDS011;9294;51.106;7.028;2024-01-06T01:54:12;1.45;;;1.45;;
18336;SDS011;9294;51.106;7.028;2024-01-06T01:56:40;1.30;;;1.30;;
18336;SDS011;9294;51.106;7.028;2024-01-06T01:59:09;1.30;;;1.30;;
18336;SDS011;9294;51.106;7.028;2024-01-06T02:01:36;1.58;;;1.58;;
18336;SDS011;9294;51.106;7.028;2024-01-06T02:04:03;1.25;;;1.25;;
18336;SDS011;9294;51.106;7.028;2024-01-06T02:06:32;1.55;;;1.50;;
18336;SDS011;9294;51.106;7.028;2024-01-06T02:08:59;1.10;;;1.10;;
18336;SDS011;9294;51.106;7.028;2024-01-06T02:11:30;1.10;;;1.10;;
18336;SDS011;9294;51.106;7.028;2024-01-06T02:13:59;1.30;;;1.30;;
18336;SDS011;9294;51.106;7.028;2024-01-06T02:16:28;1.30;;;1.30;;
18336;SDS011;9294;51.106;7.028;2024-01-06T02:18:55;1.30;;;1.30;;
18336;SDS011;9294;51.106;7.028;2024-01-06T02:21:23;1.13;;;1.13;;
18336;SDS011;9294;51.106;7.028;2024-01-06T02:23:50;1.33;;;1.33;;
18336;SDS011;9294;51.106;7.028;2024-01-06T02:26:17;1.45;;;1.45;;
18336;SDS011;9294;51.106;7.028;2024-01-06T02:28:46;1.48;;;1.48;;
18336;SDS011;9294;51.106;7.028;2024-01-06T02:31:14;1.20;;;1.20;;
18336;SDS011;9294;51.106;7.028;2024-01-06T02:33:43;1.20;;;1.20;;
18336;SDS011;9294;51.106;7.028;2024-01-06T02:36:14;1.05;;;1.05;;
18336;SDS011;9294;51.106;7.028;2024-01-06T02:38:41;1.20;;;1.20;;
18336;SDS011;9294;51.106;7.028;2024-01-06T02:41:09;1.20;;;1.10;;
18336;SDS011;9294;51.106;7.028;2024-01-06T02:43:36;1.30;;;1.30;;
18336;SDS011;9294;51.106;7.028;2024-01-06T02:46:03;1.10;;;1.10;;
18336;SDS011;9294;51.106;7.028;2024-01-06T02:48:30;1.20;;;1.20;;
18336;SDS011;9294;51.106;7.028;2024-01-06T02:50:57;1.10;;;1.10;;
18336;SDS011;9294;51.106;7.028;2024-01-06T02:53:24;1.38;;;1.30;;
18336;SDS011;9294;51.106;7.028;2024-01-06T02:55:51;1.10;;;1.10;;
18336;SDS011;9294;51.106;7.028;2024-01-06T02:58:19;1.35;;;1.30;;
18336;SDS011;9294;51.106;7.028;2024-01-06T03:00:46;1.10;;;1.10;;
18336;SDS011;9294;51.106;7.028;2024-01-06T03:03:13;1.20;;;1.20;;
18336;SDS011;9294;51.106;7.028;2024-01-06T03:05:42;1.30;;;1.30;;
18336;SDS011;9294;51.106;7.028;2024-01-06T03:08:09;1.05;;;1.05;;
18336;SDS011;9294;51.106;7.028;2024-01-06T03:10:38;1.20;;;1.20;;
18336;SDS011;9294;51.106;7.028;2024-01-06T03:13:05;1.20;;;1.20;;
18336;SDS011;9294;51.106;7.028;2024-01-06T03:15:34;1.10;;;1.10;;
18336;SDS011;9294;51.106;7.028;2024-01-06T03:18:01;1.10;;;1.10;;
18336;SDS011;9294;51.106;7.028;2024-01-06T03:20:28;1.70;;;1.60;;
18336;SDS011;9294;51.106;7.028;2024-01-06T03:22:57;1.30;;;1.30;;
18336;SDS011;9294;51.106;7.028;2024-01-06T03:25:24;1.10;;;1.10;;
18336;SDS011;9294;51.106;7.028;2024-01-06T03:27:51;1.17;;;1.17;;
18336;SDS011;9294;51.106;7.028;2024-01-06T03:30:18;1.00;;;1.00;;
18336;SDS011;9294;51.106;7.028;2024-01-06T03:32:46;1.30;;;1.30;;
18336;SDS011;9294;51.106;7.028;2024-01-06T03:35:13;1.10;;;1.10;;
18336;SDS011;9294;51.106;7.028;2024-01-06T03:37:40;1.17;;;1.17;;
18336;SDS011;9294;51.106;7.028;2024-01-06T03:40:08;1.10;;;1.10;;
18336;SDS011;9294;51.106;7.028;2024-01-06T03:42:35;0.95;;;0.95;;
18336;SDS011;9294;51.106;7.028;2024-01-06T03:45:02;1.20;;;1.20;;
18336;SDS011;9294;51.106;7.028;2024-01-06T03:47:30;1.30;;;1.30;;
18336;SDS011;9294;51.106;7.028;2024-01-06T03:49:58;1.27;;;1.27;;
18336;SDS011;9294;51.106;7.028;2024-01-06T03:52:25;1.75;;;1.27;;
18336;SDS011;9294;51.106;7.028;2024-01-06T03:54:52;1.30;;;1.30;;
18336;SDS011;9294;51.106;7.028;2024-01-06T03:57:19;1.00;;;1.00;;
18336;SDS011;9294;51.106;7.028;2024-01-06T03:59:46;1.08;;;1.08;;
18336;SDS011;9294;51.106;7.028;2024-01-06T04:02:13;1.30;;;1.30;;
18336;SDS011;9294;51.106;7.028;2024-01-06T04:04:40;1.05;;;1.05;;
18336;SDS011;9294;51.106;7.028;2024-01-06T04:07:09;1.33;;;1.33;;
18336;SDS011;9294;51.106;7.028;2024-01-06T04:09:36;1.13;;;1.13;;
18336;SDS011;9294;51.106;7.028;2024-01-06T04:12:05;1.00;;;1.00;;
18336;SDS011;9294;51.106;7.028;2024-01-06T04:14:32;1.20;;;1.20;;
18336;SDS011;9294;51.106;7.028;2024-01-06T04:16:59;0.93;;;0.93;;
18336;SDS011;9294;51.106;7.028;2024-01-06T04:19:26;1.27;;;1.27;;
18336;SDS011;9294;51.106;7.028;2024-01-06T04:21:53;1.30;;;1.30;;
18336;SDS011;9294;51.106;7.028;2024-01-06T04:24:22;0.90;;;0.90;;
18336;SDS011;9294;51.106;7.028;2024-01-06T04:26:49;1.23;;;1.23;;
18336;SDS011;9294;51.106;7.028;2024-01-06T04:29:16;1.08;;;1.08;;
18336;SDS011;9294;51.106;7.028;2024-01-06T04:31:45;1.13;;;1.13;;
18336;SDS011;9294;51.106;7.028;2024-01-06T04:34:12;1.10;;;1.10;;
18336;SDS011;9294;51.106;7.028;2024-01-06T04:36:41;1.40;;;1.40;;
18336;SDS011;9294;51.106;7.028;2024-01-06T04:39:10;1.15;;;1.15;;
18336;SDS011;9294;51.106;7.028;2024-01-06T04:41:39;1.25;;;1.25;;
18336;SDS011;9294;51.106;7.028;2024-01-06T04:44:07;1.10;;;1.02;;
18336;SDS011;9294;51.106;7.028;2024-01-06T04:46:34;1.13;;;1.13;;
18336;SDS011;9294;51.106;7.028;2024-01-06T04:49:02;1.20;;;1.20;;
18336;SDS011;9294;51.106;7.028;2024-01-06T04:51:29;1.35;;;1.35;;
18336;SDS011;9294;51.106;7.028;2024-01-06T04:53:58;1.38;;;1.38;;
18336;SDS011;9294;51.106;7.028;2024-01-06T04:56:25;1.30;;;1.30;;
18336;SDS011;9294;51.106;7.028;2024-01-06T04:58:54;1.20;;;1.20;;
18336;SDS011;9294;51.106;7.028;2024-01-06T05:01:22;1.02;;;1.02;;
18336;SDS011;9294;51.106;7.028;2024-01-06T05:03:49;1.20;;;1.20;;
18336;SDS011;9294;51.106;7.028;2024-01-06T05:06:16;1.40;;;1.40;;
18336;SDS011;9294;51.106;7.028;2024-01-06T05:08:43;1.25;;;1.25;;
18336;SDS011;9294;51.106;7.028;2024-01-06T05:11:11;1.45;;;1.45;;
18336;SDS011;9294;51.106;7.028;2024-01-06T05:13:38;1.45;;;1.45;;
18336;SDS011;9294;51.106;7.028;2024-01-06T05:16:07;1.02;;;1.02;;
18336;SDS011;9294;51.106;7.028;2024-01-06T05:18:34;1.40;;;1.40;;
18336;SDS011;9294;51.106;7.028;2024-01-06T05:21:01;1.10;;;1.10;;
18336;SDS011;9294;51.106;7.028;2024-01-06T05:23:30;1.23;;;1.23;;
18336;SDS011;9294;51.106;7.028;2024-01-06T05:25:57;1.40;;;1.40;;
18336;SDS011;9294;51.106;7.028;2024-01-06T05:28:24;1.67;;;1.13;;
18336;SDS011;9294;51.106;7.028;2024-01-06T05:30:51;4.32;;;1.60;;
18336;SDS011;9294;51.106;7.028;2024-01-06T05:33:20;1.30;;;1.30;;
18336;SDS011;9294;51.106;7.028;2024-01-06T05:35:47;2.92;;;1.52;;
18336;SDS011;9294;51.106;7.028;2024-01-06T05:38:14;1.33;;;1.33;;
18336;SDS011;9294;51.106;7.028;2024-01-06T05:40:42;2.03;;;1.30;;
18336;SDS011;9294;51.106;7.028;2024-01-06T05:43:09;3.33;;;1.20;;
18336;SDS011;9294;51.106;7.028;2024-01-06T05:45:41;1.45;;;1.40;;
18336;SDS011;9294;51.106;7.028;2024-01-06T05:48:08;1.40;;;1.40;;
18336;SDS011;9294;51.106;7.028;2024-01-06T05:50:37;2.35;;;1.38;;
18336;SDS011;9294;51.106;7.028;2024-01-06T05:53:05;11.98;;;1.77;;
18336;SDS011;9294;51.106;7.028;2024-01-06T05:55:33;1.45;;;1.35;;
18336;SDS011;9294;51.106;7.028;2024-01-06T05:58:00;1.60;;;1.50;;
18336;SDS011;9294;51.106;7.028;2024-01-06T06:00:29;2.20;;;1.73;;
18336;SDS011;9294;51.106;7.028;2024-01-06T06:02:56;2.33;;;1.60;;
18336;SDS011;9294;51.106;7.028;2024-01-06T06:05:23;1.75;;;1.65;;
18336;SDS011;9294;51.106;7.028;2024-01-06T06:07:54;1.98;;;1.58;;
18336;SDS011;9294;51.106;7.028;2024-01-06T06:10:21;2.92;;;1.77;;
18336;SDS011;9294;51.106;7.028;2024-01-06T06:12:48;1.60;;;1.60;;
18336;SDS011;9294;51.106;7.028;2024-01-06T06:15:18;2.10;;;1.98;;
18336;SDS011;9294;51.106;7.028;2024-01-06T06:17:45;2.40;;;2.30;;
18336;SDS011;9294;51.106;7.028;2024-01-06T06:20:12;2.22;;;2.13;;
18336;SDS011;9294;51.106;7.028;2024-01-06T06:22:41;2.10;;;2.00;;
18336;SDS011;9294;51.106;7.028;2024-01-06T06:25:10;1.75;;;1.67;;
18336;SDS011;9294;51.106;7.028;2024-01-06T06:27:37;2.20;;;2.10;;
18336;SDS011;9294;51.106;7.028;2024-01-06T06:30:04;2.42;;;2.22;;
18336;SDS011;9294;51.106;7.028;2024-01-06T06:32:33;2.03;;;1.90;;
18336;SDS011;9294;51.106;7.028;2024-01-06T06:35:02;2.10;;;1.90;;
18336;SDS011;9294;51.106;7.028;2024-01-06T06:37:29;1.92;;;1.83;;
18336;SDS011;9294;51.106;7.028;2024-01-06T06:39:56;1.90;;;1.80;;
18336;SDS011;9294;51.106;7.028;2024-01-06T06:42:28;2.10;;;2.00;;
18336;SDS011;9294;51.106;7.028;2024-01-06T06:44:55;2.08;;;1.98;;
18336;SDS011;9294;51.106;7.028;2024-01-06T06:47:22;9.10;;;5.13;;
18336;SDS011;9294;51.106;7.028;2024-01-06T06:49:49;23.58;;;12.43;;
18336;SDS011;9294;51.106;7.028;2024-01-06T06:52:16;25.70;;;13.90;;
18336;SDS011;9294;51.106;7.028;2024-01-06T06:54:43;29.98;;;15.57;;
18336;SDS011;9294;51.106;7.028;2024-01-06T06:57:10;27.58;;;15.55;;
18336;SDS011;9294;51.106;7.028;2024-01-06T06:59:39;26.50;;;14.77;;
18336;SDS011;9294;51.106;7.028;2024-01-06T07:02:06;28.20;;;14.00;;
18336;SDS011;9294;51.106;7.028;2024-01-06T07:04:34;29.05;;;14.95;;
18336;SDS011;9294;51.106;7.028;2024-01-06T07:07:01;25.98;;;14.73;;
18336;SDS011;9294;51.106;7.028;2024-01-06T07:09:28;26.08;;;13.77;;
18336;SDS011;9294;51.106;7.028;2024-01-06T07:11:55;15.52;;;10.00;;
18336;SDS011;9294;51.106;7.028;2024-01-06T07:14:22;15.43;;;9.95;;
18336;SDS011;9294;51.106;7.028;2024-01-06T07:16:51;24.55;;;11.45;;
18336;SDS011;9294;51.106;7.028;2024-01-06T07:19:18;21.95;;;11.65;;
18336;SDS011;9294;51.106;7.028;2024-01-06T07:21:47;16.50;;;9.38;;
18336;SDS011;9294;51.106;7.028;2024-01-06T07:24:14;15.07;;;9.65;;
18336;SDS011;9294;51.106;7.028;2024-01-06T07:26:41;19.70;;;11.05;;
18336;SDS011;9294;51.106;7.028;2024-01-06T07:29:08;15.07;;;9.55;;
18336;SDS011;9294;51.106;7.028;2024-01-06T07:31:35;20.52;;;10.25;;
18336;SDS011;9294;51.106;7.028;2024-01-06T07:34:03;12.27;;;8.63;;
18336;SDS011;9294;51.106;7.028;2024-01-06T07:36:31;15.60;;;8.95;;
18336;SDS011;9294;51.106;7.028;2024-01-06T07:39:01;16.25;;;8.20;;
18336;SDS011;9294;51.106;7.028;2024-01-06T07:41:29;17.17;;;8.48;;
18336;SDS011;9294;51.106;7.028;2024-01-06T07:43:57;14.38;;;6.90;;
18336;SDS011;9294;51.106;7.028;2024-01-06T07:46:26;14.35;;;7.70;;
18336;SDS011;9294;51.106;7.028;2024-01-06T07:48:53;17.05;;;7.75;;
18336;SDS011;9294;51.106;7.028;2024-01-06T07:51:21;12.60;;;7.80;;
18336;SDS011;9294;51.106;7.028;2024-01-06T07:53:50;11.32;;;7.38;;
18336;SDS011;9294;51.106;7.028;2024-01-06T07:56:17;14.15;;;7.50;;
18336;SDS011;9294;51.106;7.028;2024-01-06T07:58:45;16.17;;;7.55;;
18336;SDS011;9294;51.106;7.028;2024-01-06T08:01:12;10.25;;;7.22;;
18336;SDS011;9294;51.106;7.028;2024-01-06T08:03:40;16.85;;;7.75;;
18336;SDS011;9294;51.106;7.028;2024-01-06T08:06:09;15.02;;;8.27;;
18336;SDS011;9294;51.106;7.028;2024-01-06T08:08:37;11.35;;;6.55;;
18336;SDS011;9294;51.106;7.028;2024-01-06T08:11:04;8.30;;;6.32;;
18336;SDS011;9294;51.106;7.028;2024-01-06T08:13:33;12.52;;;6.50;;
18336;SDS011;9294;51.106;7.028;2024-01-06T08:16:00;12.02;;;6.22;;
18336;SDS011;9294;51.106;7.028;2024-01-06T08:18:27;9.43;;;6.13;;
18336;SDS011;9294;51.106;7.028;2024-01-06T08:20:54;13.77;;;6.03;;
18336;SDS011;9294;51.106;7.028;2024-01-06T08:23:21;10.20;;;6.13;;
18336;SDS011;9294;51.106;7.028;2024-01-06T08:25:49;8.80;;;6.18;;
18336;SDS011;9294;51.106;7.028;2024-01-06T08:28:16;9.73;;;6.32;;
18336;SDS011;9294;51.106;7.028;2024-01-06T08:30:44;9.07;;;5.85;;
18336;SDS011;9294;51.106;7.028;2024-01-06T08:33:11;12.63;;;6.80;;
18336;SDS011;9294;51.106;7.028;2024-01-06T08:35:38;8.13;;;6.13;;
18336;SDS011;9294;51.106;7.028;2024-01-06T08:38:05;10.30;;;6.30;;
18336;SDS011;9294;51.106;7.028;2024-01-06T08:40:36;10.00;;;5.82;;
18336;SDS011;9294;51.106;7.028;2024-01-06T08:43:04;11.48;;;6.25;;
18336;SDS011;9294;51.106;7.028;2024-01-06T08:45:32;10.45;;;5.90;;
18336;SDS011;9294;51.106;7.028;2024-01-06T08:47:59;9.40;;;5.95;;
18336;SDS011;9294;51.106;7.028;2024-01-06T08:50:26;6.90;;;5.72;;
18336;SDS011;9294;51.106;7.028;2024-01-06T08:52:53;9.95;;;5.13;;
18336;SDS011;9294;51.106;7.028;2024-01-06T08:55:20;11.57;;;6.22;;
18336;SDS011;9294;51.106;7.028;2024-01-06T08:57:47;6.78;;;5.32;;
18336;SDS011;9294;51.106;7.028;2024-01-06T09:00:16;7.72;;;5.22;;
18336;SDS011;9294;51.106;7.028;2024-01-06T09:02:43;7.85;;;5.50;;
18336;SDS011;9294;51.106;7.028;2024-01-06T09:05:10;9.23;;;5.20;;
18336;SDS011;9294;51.106;7.028;2024-01-06T09:07:40;9.43;;;5.30;;
18336;SDS011;9294;51.106;7.028;2024-01-06T09:10:08;8.50;;;5.20;;
18336;SDS011;9294;51.106;7.028;2024-01-06T09:12:35;11.32;;;5.38;;
18336;SDS011;9294;51.106;7.028;2024-01-06T09:15:01;10.70;;;6.13;;
18336;SDS011;9294;51.106;7.028;2024-01-06T09:17:30;9.95;;;5.75;;
18336;SDS011;9294;51.106;7.028;2024-01-06T09:19:57;7.07;;;5.20;;
18336;SDS011;9294;51.106;7.028;2024-01-06T09:22:24;7.55;;;5.05;;
18336;SDS011;9294;51.106;7.028;2024-01-06T09:24:51;10.45;;;5.38;;
18336;SDS011;9294;51.106;7.028;2024-01-06T09:27:19;9.43;;;4.82;;
18336;SDS011;9294;51.106;7.028;2024-01-06T09:29:46;7.32;;;4.55;;
18336;SDS011;9294;51.106;7.028;2024-01-06T09:32:13;6.70;;;4.82;;
18336;SDS011;9294;51.106;7.028;2024-01-06T09:34:42;7.07;;;5.13;;
18336;SDS011;9294;51.106;7.028;2024-01-06T09:37:09;6.95;;;4.82;;
18336;SDS011;9294;51.106;7.028;2024-01-06T09:39:36;7.47;;;5.22;;
18336;SDS011;9294;51.106;7.028;2024-01-06T09:42:04;6.18;;;4.70;;
18336;SDS011;9294;51.106;7.028;2024-01-06T09:44:34;7.50;;;5.13;;
18336;SDS011;9294;51.106;7.028;2024-01-06T09:47:01;12.50;;;4.72;;
18336;SDS011;9294;51.106;7.028;2024-01-06T09:49:30;11.18;;;4.60;;
18336;SDS011;9294;51.106;7.028;2024-01-06T09:52:00;6.15;;;4.78;;
18336;SDS011;9294;51.106;7.028;2024-01-06T09:54:29;7.28;;;4.20;;
18336;SDS011;9294;51.106;7.028;2024-01-06T09:56:59;5.88;;;4.38;;
18336;SDS011;9294;51.106;7.028;2024-01-06T09:59:26;11.05;;;4.07;;
18336;SDS011;9294;51.106;7.028;2024-01-06T10:01:55;9.02;;;5.93;;
18336;SDS011;9294;51.106;7.028;2024-01-06T10:04:24;9.95;;;5.38;;
18336;SDS011;9294;51.106;7.028;2024-01-06T10:06:51;6.55;;;4.05;;
18336;SDS011;9294;51.106;7.028;2024-01-06T10:09:26;7.82;;;4.32;;
18336;SDS011;9294;51.106;7.028;2024-01-06T10:11:54;5.05;;;4.55;;
18336;SDS011;9294;51.106;7.028;2024-01-06T10:14:23;13.30;;;4.85;;
18336;SDS011;9294;51.106;7.028;2024-01-06T10:16:50;10.20;;;4.25;;
18336;SDS011;9294;51.106;7.028;2024-01-06T10:19:18;6.70;;;4.32;;
18336;SDS011;9294;51.106;7.028;2024-01-06T10:21:45;13.63;;;5.10;;
18336;SDS011;9294;51.106;7.028;2024-01-06T10:24:14;7.95;;;4.80;;
18336;SDS011;9294;51.106;7.028;2024-01-06T10:26:45;8.65;;;5.60;;
18336;SDS011;9294;51.106;7.028;2024-01-06T10:29:12;19.73;;;10.63;;
18336;SDS011;9294;51.106;7.028;2024-01-06T10:31:39;59.80;;;45.17;;
18336;SDS011;9294;51.106;7.028;2024-01-06T10:34:07;81.60;;;62.70;;
18336;SDS011;9294;51.106;7.028;2024-01-06T10:36:34;72.50;;;61.38;;
18336;SDS011;9294;51.106;7.028;2024-01-06T10:39:02;63.25;;;55.97;;
18336;SDS011;9294;51.106;7.028;2024-01-06T10:41:29;59.83;;;50.03;;
18336;SDS011;9294;51.106;7.028;2024-01-06T10:43:58;56.10;;;45.92;;
18336;SDS011;9294;51.106;7.028;2024-01-06T10:46:27;51.80;;;44.33;;
18336;SDS011;9294;51.106;7.028;2024-01-06T10:48:55;50.08;;;42.35;;
18336;SDS011;9294;51.106;7.028;2024-01-06T10:51:23;46.53;;;39.40;;
18336;SDS011;9294;51.106;7.028;2024-01-06T10:53:52;41.72;;;36.08;;
18336;SDS011;9294;51.106;7.028;2024-01-06T10:56:20;40.88;;;35.17;;
18336;SDS011;9294;51.106;7.028;2024-01-06T10:58:47;42.40;;;35.30;;
18336;SDS011;9294;51.106;7.028;2024-01-06T11:01:19;39.88;;;32.33;;
18336;SDS011;9294;51.106;7.028;2024-01-06T11:03:49;37.10;;;30.13;;
18336;SDS011;9294;51.106;7.028;2024-01-06T11:06:17;33.30;;;28.88;;
18336;SDS011;9294;51.106;7.028;2024-01-06T11:08:46;31.00;;;27.38;;
18336;SDS011;9294;51.106;7.028;2024-01-06T11:11:15;34.00;;;26.13;;
18336;SDS011;9294;51.106;7.028;2024-01-06T11:13:43;28.58;;;24.17;;
18336;SDS011;9294;51.106;7.028;2024-01-06T11:16:12;28.35;;;23.75;;
18336;SDS011;9294;51.106;7.028;2024-01-06T11:19:00;28.90;;;23.77;;
18336;SDS011;9294;51.106;7.028;2024-01-06T11:21:34;24.63;;;21.98;;
18336;SDS011;9294;51.106;7.028;2024-01-06T11:24:08;25.95;;;21.02;;
18336;SDS011;9294;51.106;7.028;2024-01-06T11:26:37;22.45;;;19.58;;
18336;SDS011;9294;51.106;7.028;2024-01-06T11:29:05;23.05;;;20.55;;
18336;SDS011;9294;51.106;7.028;2024-01-06T11:31:32;28.15;;;19.65;;
18336;SDS011;9294;51.106;7.028;2024-01-06T11:34:13;20.38;;;17.77;;
18336;SDS011;9294;51.106;7.028;2024-01-06T11:36:42;19.88;;;17.17;;
18336;SDS011;9294;51.106;7.028;2024-01-06T11:41:59;17.48;;;15.38;;
18336;SDS011;9294;51.106;7.028;2024-01-06T11:44:27;20.27;;;15.32;;
18336;SDS011;9294;51.106;7.028;2024-01-06T11:46:55;15.68;;;14.02;;
18336;SDS011;9294;51.106;7.028;2024-01-06T11:49:24;16.63;;;14.20;;
18336;SDS011;9294;51.106;7.028;2024-01-06T11:51:53;16.42;;;14.70;;
18336;SDS011;9294;51.106;7.028;2024-01-06T11:54:20;20.58;;;12.73;;
18336;SDS011;9294;51.106;7.028;2024-01-06T11:56:47;14.20;;;12.73;;
18336;SDS011;9294;51.106;7.028;2024-01-06T11:59:14;13.80;;;12.43;;
18336;SDS011;9294;51.106;7.028;2024-01-06T12:01:43;14.25;;;12.82;;
18336;SDS011;9294;51.106;7.028;2024-01-06T12:04:10;15.57;;;12.98;;
18336;SDS011;9294;51.106;7.028;2024-01-06T12:06:41;13.88;;;12.48;;
18336;SDS011;9294;51.106;7.028;2024-01-06T12:09:10;13.35;;;11.05;;
18336;SDS011;9294;51.106;7.028;2024-01-06T12:11:39;12.52;;;11.32;;
18336;SDS011;9294;51.106;7.028;2024-01-06T12:14:06;12.07;;;10.88;;
18336;SDS011;9294;51.106;7.028;2024-01-06T12:16:33;12.45;;;10.20;;
18336;SDS011;9294;51.106;7.028;2024-01-06T12:19:00;11.23;;;10.07;;
18336;SDS011;9294;51.106;7.028;2024-01-06T12:21:28;13.70;;;9.80;;
18336;SDS011;9294;51.106;7.028;2024-01-06T12:24:19;12.82;;;10.40;;
18336;SDS011;9294;51.106;7.028;2024-01-06T12:26:46;10.82;;;9.68;;
18336;SDS011;9294;51.106;7.028;2024-01-06T12:29:14;11.30;;;10.20;;
18336;SDS011;9294;51.106;7.028;2024-01-06T12:31:43;12.00;;;10.68;;
18336;SDS011;9294;51.106;7.028;2024-01-06T12:34:10;10.18;;;9.30;;
18336;SDS011;9294;51.106;7.028;2024-01-06T12:36:38;13.07;;;9.95;;
18336;SDS011;9294;51.106;7.028;2024-01-06T12:39:06;12.45;;;9.20;;
18336;SDS011;9294;51.106;7.028;2024-01-06T12:41:35;9.82;;;8.82;;
18336;SDS011;9294;51.106;7.028;2024-01-06T12:44:03;10.82;;;9.30;;
18336;SDS011;9294;51.106;7.028;2024-01-06T12:46:30;10.30;;;9.05;;
18336;SDS011;9294;51.106;7.028;2024-01-06T12:49:01;8.93;;;8.02;;
18336;SDS011;9294;51.106;7.028;2024-01-06T12:51:28;9.65;;;8.65;;
18336;SDS011;9294;51.106;7.028;2024-01-06T12:53:55;9.90;;;8.15;;
18336;SDS011;9294;51.106;7.028;2024-01-06T12:56:23;8.77;;;7.88;;
18336;SDS011;9294;51.106;7.028;2024-01-06T12:58:51;8.93;;;8.02;;
18336;SDS011;9294;51.106;7.028;2024-01-06T13:01:18;8.75;;;7.95;;
18336;SDS011;9294;51.106;7.028;2024-01-06T13:03:45;12.23;;;8.27;;
18336;SDS011;9294;51.106;7.028;2024-01-06T13:06:14;8.32;;;7.53;;
18336;SDS011;9294;51.106;7.028;2024-01-06T13:08:44;9.15;;;8.20;;
18336;SDS011;9294;51.106;7.028;2024-01-06T13:11:11;8.05;;;7.40;;
18336;SDS011;9294;51.106;7.028;2024-01-06T13:13:38;7.72;;;7.13;;
18336;SDS011;9294;51.106;7.028;2024-01-06T13:16:07;8.68;;;7.78;;
18336;SDS011;9294;51.106;7.028;2024-01-06T13:18:34;9.52;;;8.57;;
18336;SDS011;9294;51.106;7.028;2024-01-06T13:21:01;9.05;;;8.15;;
18336;SDS011;9294;51.106;7.028;2024-01-06T13:23:31;8.73;;;7.93;;
18336;SDS011;9294;51.106;7.028;2024-01-06T13:25:58;11.27;;;8.20;;
18336;SDS011;9294;51.106;7.028;2024-01-06T13:28:27;9.55;;;8.05;;
18336;SDS011;9294;51.106;7.028;2024-01-06T13:30:54;11.20;;;8.43;;
18336;SDS011;9294;51.106;7.028;2024-01-06T13:33:22;10.25;;;7.43;;
18336;SDS011;9294;51.106;7.028;2024-01-06T13:35:49;8.77;;;7.97;;
18336;SDS011;9294;51.106;7.028;2024-01-06T13:38:19;7.90;;;7.07;;
18336;SDS011;9294;51.106;7.028;2024-01-06T13:40:47;8.57;;;7.85;;
18336;SDS011;9294;51.106;7.028;2024-01-06T13:43:17;8.70;;;7.75;;
18336;SDS011;9294;51.106;7.028;2024-01-06T13:45:44;8.25;;;7.45;;
18336;SDS011;9294;51.106;7.028;2024-01-06T13:48:12;8.10;;;7.30;;
18336;SDS011;9294;51.106;7.028;2024-01-06T13:50:41;8.13;;;7.43;;
18336;SDS011;9294;51.106;7.028;2024-01-06T13:53:11;8.45;;;7.65;;
18336;SDS011;9294;51.106;7.028;2024-01-06T13:55:44;7.75;;;7.05;;
18336;SDS011;9294;51.106;7.028;2024-01-06T13:58:11;8.40;;;7.35;;
18336;SDS011;9294;51.106;7.028;2024-01-06T14:00:38;7.65;;;7.05;;
18336;SDS011;9294;51.106;7.028;2024-01-06T14:03:06;7.82;;;7.07;;
18336;SDS011;9294;51.106;7.028;2024-01-06T14:05:33;8.27;;;7.28;;
18336;SDS011;9294;51.106;7.028;2024-01-06T14:08:04;9.98;;;7.30;;
18336;SDS011;9294;51.106;7.028;2024-01-06T14:10:31;8.68;;;7.78;;
18336;SDS011;9294;51.106;7.028;2024-01-06T14:12:58;7.70;;;7.00;;
18336;SDS011;9294;51.106;7.028;2024-01-06T14:15:27;7.93;;;7.30;;
18336;SDS011;9294;51.106;7.028;2024-01-06T14:17:56;8.25;;;7.38;;
18336;SDS011;9294;51.106;7.028;2024-01-06T14:20:27;7.88;;;7.10;;
18336;SDS011;9294;51.106;7.028;2024-01-06T14:22:54;7.93;;;7.15;;
18336;SDS011;9294;51.106;7.028;2024-01-06T14:25:22;10.13;;;7.90;;
18336;SDS011;9294;51.106;7.028;2024-01-06T14:27:49;8.10;;;7.35;;
18336;SDS011;9294;51.106;7.028;2024-01-06T14:30:17;8.55;;;7.75;;
18336;SDS011;9294;51.106;7.028;2024-01-06T14:32:45;8.30;;;7.60;;
18336;SDS011;9294;51.106;7.028;2024-01-06T14:35:12;8.35;;;7.55;;
18336;SDS011;9294;51.106;7.028;2024-01-06T14:37:41;8.23;;;7.53;;
18336;SDS011;9294;51.106;7.028;2024-01-06T14:40:11;7.68;;;6.97;;
18336;SDS011;9294;51.106;7.028;2024-01-06T14:42:44;9.52;;;8.63;;
18336;SDS011;9294;51.106;7.028;2024-01-06T14:45:11;9.00;;;8.13;;
18336;SDS011;9294;51.106;7.028;2024-01-06T14:47:39;8.88;;;7.82;;
18336;SDS011;9294;51.106;7.028;2024-01-06T14:50:06;8.82;;;8.02;;
18336;SDS011;9294;51.106;7.028;2024-01-06T14:52:34;8.90;;;8.00;;
18336;SDS011;9294;51.106;7.028;2024-01-06T14:55:01;8.50;;;7.80;;
18336;SDS011;9294;51.106;7.028;2024-01-06T14:57:28;9.05;;;7.45;;
18336;SDS011;9294;51.106;7.028;2024-01-06T14:59:56;8.25;;;7.45;;
18336;SDS011;9294;51.106;7.028;2024-01-06T15:02:24;8.05;;;7.25;;